Time;durP1;ratioP1;P1;durP2;ratioP2;P2;SDS_P1;SDS_P2;PMS_P1;PMS_P2;Temp;Humidity;BMP_temperature;BMP_pressure;BME280_temperature;BME280_humidity;BME280_pressure;Samples;Min_cycle;Max_cycle;Signal;HPM_P1;HPM_P2
2022/01/04 00:00:23;;;;;;;22.95;11.85;;;;;;;;;;5006397;28;96591;-70
2022/01/04 00:02:49;;;;;;;26.02;11.13;;;;;;;;;;4989852;28;93470;-70
2022/01/04 00:05:16;;;;;;;23.65;11.95;;;;;;;;;;5009519;28;92463;-70
2022/01/04 00:07:42;;;;;;;21.30;11.85;;;;;;;;;;4997201;28;93961;-70
2022/01/04 00:10:09;;;;;;;24.73;11.63;;;;;;;;;;5002506;28;93988;-70
2022/01/04 00:15:21;;;;;;;22.95;12.40;;;;;;;;;;4994866;28;94205;-70
2022/01/04 00:17:48;;;;;;;31.17;12.73;;;;;;;;;;4998056;28;93931;-71
2022/01/04 00:20:14;;;;;;;26.67;11.98;;;;;;;;;;5002321;28;94258;-70
2022/01/04 00:22:40;;;;;;;30.27;13.25;;;;;;;;;;5004379;28;97110;-70
2022/01/04 00:25:07;;;;;;;31.42;13.15;;;;;;;;;;5006156;28;92459;-70
2022/01/04 00:27:34;;;;;;;29.50;13.88;;;;;;;;;;5006760;28;93063;-70
2022/01/04 00:30:00;;;;;;;30.88;12.70;;;;;;;;;;4995234;28;95785;-70
2022/01/04 00:32:26;;;;;;;23.75;13.00;;;;;;;;;;5002562;28;92660;-69
2022/01/04 00:34:54;;;;;;;20.55;12.93;;;;;;;;;;4995129;28;94505;-70
2022/01/04 00:37:20;;;;;;;28.88;13.93;;;;;;;;;;5002289;28;92615;-70
2022/01/04 00:39:46;;;;;;;23.15;12.63;;;;;;;;;;5004933;28;92647;-70
2022/01/04 00:42:14;;;;;;;30.33;12.05;;;;;;;;;;5008685;28;94801;-70
2022/01/04 00:44:40;;;;;;;37.28;14.27;;;;;;;;;;5003588;28;92471;-70
2022/01/04 00:47:08;;;;;;;34.38;13.38;;;;;;;;;;5005547;28;95500;-70
2022/01/04 00:49:35;;;;;;;25.88;13.85;;;;;;;;;;4994985;28;94439;-70
2022/01/04 00:52:02;;;;;;;24.42;13.52;;;;;;;;;;4999538;28;92513;-69
2022/01/04 00:54:28;;;;;;;21.63;13.38;;;;;;;;;;5000574;28;94091;-70
2022/01/04 00:56:54;;;;;;;24.42;13.95;;;;;;;;;;4999802;28;93541;-70
2022/01/04 00:59:21;;;;;;;20.50;12.48;;;;;;;;;;5001286;28;92934;-70
2022/01/04 01:01:47;;;;;;;28.80;13.75;;;;;;;;;;4995059;28;93097;-70
2022/01/04 01:04:14;;;;;;;21.90;12.50;;;;;;;;;;5003905;28;92822;-70
2022/01/04 01:06:40;;;;;;;21.33;12.93;;;;;;;;;;4990627;28;92554;-70
2022/01/04 01:09:07;;;;;;;27.48;14.43;;;;;;;;;;5006665;28;94395;-70
2022/01/04 01:11:33;;;;;;;28.77;14.35;;;;;;;;;;4993486;28;96619;-71
2022/01/04 01:13:59;;;;;;;21.88;13.43;;;;;;;;;;5002825;28;96892;-70
2022/01/04 01:16:26;;;;;;;34.22;14.98;;;;;;;;;;5001753;28;94180;-70
2022/01/04 01:18:52;;;;;;;26.58;13.93;;;;;;;;;;5003118;28;92435;-69
2022/01/04 01:21:19;;;;;;;27.20;13.18;;;;;;;;;;5003363;28;93137;-69
2022/01/04 01:23:45;;;;;;;23.13;13.95;;;;;;;;;;4995902;28;94579;-69
2022/01/04 01:26:11;;;;;;;24.40;13.57;;;;;;;;;;5005623;28;94603;-70
2022/01/04 01:28:38;;;;;;;28.60;13.07;;;;;;;;;;5001058;28;92842;-70
2022/01/04 01:31:05;;;;;;;34.00;14.63;;;;;;;;;;5001504;28;92569;-70
2022/01/04 01:33:32;;;;;;;25.52;13.88;;;;;;;;;;4998185;28;94039;-70
2022/01/04 01:35:58;;;;;;;25.83;14.88;;;;;;;;;;5003811;28;95796;-70
2022/01/04 01:38:25;;;;;;;31.42;12.45;;;;;;;;;;4997335;28;92763;-70
2022/01/04 01:40:52;;;;;;;27.83;14.18;;;;;;;;;;4999692;28;94604;-70
2022/01/04 01:43:18;;;;;;;26.15;14.70;;;;;;;;;;4998886;28;93809;-71
2022/01/04 01:45:45;;;;;;;23.33;14.48;;;;;;;;;;5001659;28;92522;-70
2022/01/04 01:48:12;;;;;;;27.30;12.70;;;;;;;;;;5003937;28;93250;-70
2022/01/04 01:50:38;;;;;;;20.48;13.52;;;;;;;;;;5001144;28;92449;-70
2022/01/04 01:53:05;;;;;;;27.98;14.98;;;;;;;;;;4995916;28;94450;-70
2022/01/04 01:55:32;;;;;;;23.27;14.23;;;;;;;;;;4998138;28;94089;-70
2022/01/04 01:57:58;;;;;;;30.17;14.65;;;;;;;;;;5009400;28;92488;-70
2022/01/04 02:00:25;;;;;;;27.95;14.13;;;;;;;;;;5006263;28;94864;-70
2022/01/04 02:02:52;;;;;;;27.67;14.57;;;;;;;;;;5008664;28;94869;-70
2022/01/04 02:05:19;;;;;;;24.15;15.13;;;;;;;;;;5007153;28;93243;-70
2022/01/04 02:07:45;;;;;;;22.77;13.38;;;;;;;;;;5006852;28;94090;-69
2022/01/04 02:10:12;;;;;;;26.73;14.73;;;;;;;;;;4996815;28;92923;-69
2022/01/04 02:12:39;;;;;;;30.48;15.05;;;;;;;;;;4999022;28;93826;-69
2022/01/04 02:15:07;;;;;;;29.50;14.52;;;;;;;;;;5001730;28;94291;-69
2022/01/04 02:17:34;;;;;;;24.85;14.43;;;;;;;;;;5001077;28;91879;-70
2022/01/04 02:20:00;;;;;;;28.08;15.38;;;;;;;;;;5009649;28;92538;-70
2022/01/04 02:22:27;;;;;;;24.40;14.88;;;;;;;;;;5006615;28;94041;-70
2022/01/04 02:24:54;;;;;;;24.45;13.35;;;;;;;;;;5000506;28;94953;-70
2022/01/04 02:27:20;;;;;;;21.27;15.07;;;;;;;;;;5004758;28;96496;-70
2022/01/04 02:29:47;;;;;;;26.92;14.52;;;;;;;;;;5006060;28;92611;-70
2022/01/04 02:32:14;;;;;;;22.00;14.32;;;;;;;;;;5005950;28;94289;-70
2022/01/04 02:34:45;;;;;;;19.13;13.70;;;;;;;;;;5002397;28;93668;-70
2022/01/04 02:37:12;;;;;;;27.27;15.20;;;;;;;;;;5004062;28;92484;-70
2022/01/04 02:39:38;;;;;;;24.77;15.00;;;;;;;;;;5012277;28;94171;-70
2022/01/04 02:42:05;;;;;;;23.20;14.70;;;;;;;;;;5000757;28;93460;-70
2022/01/04 02:44:32;;;;;;;24.45;14.55;;;;;;;;;;5002076;28;92578;-69
2022/01/04 02:46:58;;;;;;;23.25;16.42;;;;;;;;;;5007081;28;95634;-69
2022/01/04 02:49:25;;;;;;;32.25;15.15;;;;;;;;;;4999952;28;96572;-70
2022/01/04 02:51:51;;;;;;;23.85;14.27;;;;;;;;;;5008853;28;96573;-70
2022/01/04 02:54:18;;;;;;;20.52;12.80;;;;;;;;;;5011759;28;94068;-70
2022/01/04 02:56:44;;;;;;;21.38;13.50;;;;;;;;;;5011221;28;92915;-69
2022/01/04 02:59:10;;;;;;;22.02;14.65;;;;;;;;;;4993583;28;94830;-70
2022/01/04 03:01:37;;;;;;;23.45;15.68;;;;;;;;;;5002534;28;94236;-70
2022/01/04 03:04:04;;;;;;;25.60;15.95;;;;;;;;;;5004702;28;93236;-70
2022/01/04 03:06:30;;;;;;;25.55;15.25;;;;;;;;;;5004124;28;93203;-70
2022/01/04 03:08:57;;;;;;;25.67;14.77;;;;;;;;;;5007908;28;94067;-69
2022/01/04 03:11:23;;;;;;;23.85;14.57;;;;;;;;;;5006742;28;94013;-70
2022/01/04 03:13:49;;;;;;;25.17;14.68;;;;;;;;;;4993488;28;96523;-70
2022/01/04 03:16:16;;;;;;;25.58;15.68;;;;;;;;;;5000684;28;92483;-70
2022/01/04 03:19:16;;;;;;;22.02;14.98;;;;;;;;;;5000080;28;94150;-70
2022/01/04 03:21:36;;;;;;;25.70;15.82;;;;;;;;;;5000794;28;94195;-70
2022/01/04 03:24:05;;;;;;;20.48;15.88;;;;;;;;;;5004127;28;92904;-70
2022/01/04 03:26:31;;;;;;;18.20;16.23;;;;;;;;;;5004161;28;93499;-70
2022/01/04 03:28:57;;;;;;;18.77;15.05;;;;;;;;;;5007518;28;94122;-70
2022/01/04 03:31:24;;;;;;;22.08;16.27;;;;;;;;;;4996952;28;93041;-70
2022/01/04 03:33:51;;;;;;;20.75;16.70;;;;;;;;;;5010972;28;94375;-70
2022/01/04 03:36:20;;;;;;;20.75;17.75;;;;;;;;;;5011848;28;92613;-70
2022/01/04 03:38:48;;;;;;;22.10;17.45;;;;;;;;;;5000084;28;96325;-71
2022/01/04 03:41:15;;;;;;;24.38;15.88;;;;;;;;;;5003544;28;93721;-71
2022/01/04 03:43:42;;;;;;;22.92;16.23;;;;;;;;;;5001702;28;92577;-70
2022/01/04 03:46:09;;;;;;;24.83;18.23;;;;;;;;;;5005529;28;93860;-71
2022/01/04 03:48:35;;;;;;;28.63;17.83;;;;;;;;;;4998412;28;93996;-70
2022/01/04 03:51:03;;;;;;;27.23;17.13;;;;;;;;;;5002522;28;92535;-70
2022/01/04 03:53:29;;;;;;;28.40;17.33;;;;;;;;;;5003749;28;93649;-70
2022/01/04 03:55:56;;;;;;;24.58;17.80;;;;;;;;;;5013695;28;92772;-70
2022/01/04 03:58:22;;;;;;;23.70;16.40;;;;;;;;;;4998123;28;92544;-70
2022/01/04 04:00:49;;;;;;;29.92;18.63;;;;;;;;;;5003701;28;94975;-70
2022/01/04 04:03:15;;;;;;;23.90;17.20;;;;;;;;;;4999488;28;94873;-69
2022/01/04 04:05:42;;;;;;;27.60;17.45;;;;;;;;;;5004375;28;96249;-70
2022/01/04 04:08:08;;;;;;;17.05;15.25;;;;;;;;;;5005573;28;94237;-70
2022/01/04 04:10:35;;;;;;;23.40;17.70;;;;;;;;;;5003726;28;94057;-69
2022/01/04 04:13:02;;;;;;;30.70;17.63;;;;;;;;;;5006034;28;93924;-70
2022/01/04 04:15:28;;;;;;;35.63;18.02;;;;;;;;;;5009289;28;93478;-70
2022/01/04 04:17:55;;;;;;;24.38;17.27;;;;;;;;;;4998301;28;94195;-70
2022/01/04 04:20:21;;;;;;;22.48;18.10;;;;;;;;;;5003663;28;93432;-69
2022/01/04 04:22:47;;;;;;;32.47;19.55;;;;;;;;;;4994030;28;92907;-69
2022/01/04 04:25:14;;;;;;;28.45;17.92;;;;;;;;;;4998753;28;93974;-70
2022/01/04 04:27:40;;;;;;;26.60;18.38;;;;;;;;;;5000980;28;96724;-69
2022/01/04 04:30:07;;;;;;;25.85;17.33;;;;;;;;;;5008689;28;92971;-70
2022/01/04 04:32:34;;;;;;;27.05;18.27;;;;;;;;;;5007664;28;93020;-70
2022/01/04 04:35:00;;;;;;;34.90;16.95;;;;;;;;;;4996902;28;93456;-69
2022/01/04 04:37:26;;;;;;;36.80;18.40;;;;;;;;;;5006745;28;92678;-70
2022/01/04 04:39:53;;;;;;;25.00;17.92;;;;;;;;;;5003859;28;94127;-69
2022/01/04 04:42:19;;;;;;;29.00;16.75;;;;;;;;;;5001553;28;92986;-69
2022/01/04 04:44:46;;;;;;;25.90;16.50;;;;;;;;;;5003045;28;94020;-70
2022/01/04 04:47:12;;;;;;;28.15;17.70;;;;;;;;;;5002446;28;95358;-70
2022/01/04 04:49:39;;;;;;;30.15;17.00;;;;;;;;;;4991722;28;93854;-70
2022/01/04 04:52:05;;;;;;;26.30;18.88;;;;;;;;;;4999039;28;95371;-70
2022/01/04 04:54:31;;;;;;;19.48;16.27;;;;;;;;;;4994921;28;93918;-70
2022/01/04 04:56:58;;;;;;;22.98;17.50;;;;;;;;;;5004074;28;92496;-71
2022/01/04 04:59:24;;;;;;;23.95;17.00;;;;;;;;;;4997225;28;93770;-70
2022/01/04 05:01:50;;;;;;;26.85;17.60;;;;;;;;;;5003881;28;92614;-70
2022/01/04 05:04:18;;;;;;;23.92;17.27;;;;;;;;;;4995067;28;94333;-71
2022/01/04 05:06:44;;;;;;;28.45;17.70;;;;;;;;;;4998240;28;93598;-70
2022/01/04 05:09:10;;;;;;;22.20;17.20;;;;;;;;;;5000921;28;91737;-69
2022/01/04 05:11:37;;;;;;;34.13;18.48;;;;;;;;;;5006878;28;94242;-69
2022/01/04 05:14:03;;;;;;;28.63;18.10;;;;;;;;;;5005407;28;94158;-69
2022/01/04 05:16:29;;;;;;;25.67;17.95;;;;;;;;;;4997707;28;95517;-70
2022/01/04 05:18:56;;;;;;;28.52;17.00;;;;;;;;;;5002979;28;95304;-70
2022/01/04 05:21:22;;;;;;;23.48;16.55;;;;;;;;;;5004601;28;94403;-70
2022/01/04 05:23:50;;;;;;;24.55;16.65;;;;;;;;;;4995061;28;93202;-70
2022/01/04 05:26:16;;;;;;;22.42;16.80;;;;;;;;;;5002650;28;93531;-70
2022/01/04 05:28:45;;;;;;;29.40;17.80;;;;;;;;;;4991456;28;94027;-70
2022/01/04 05:31:12;;;;;;;24.75;16.83;;;;;;;;;;5000437;28;95388;-70
2022/01/04 05:33:39;;;;;;;25.98;17.13;;;;;;;;;;5000486;28;93250;-70
2022/01/04 05:36:05;;;;;;;21.50;16.33;;;;;;;;;;5002556;28;92463;-70
2022/01/04 05:38:32;;;;;;;26.67;16.42;;;;;;;;;;4999706;28;93856;-70
2022/01/04 05:40:58;;;;;;;21.92;16.20;;;;;;;;;;4997315;28;96774;-70
2022/01/04 05:43:25;;;;;;;23.75;15.75;;;;;;;;;;5001771;28;92457;-69
2022/01/04 05:45:51;;;;;;;20.15;16.42;;;;;;;;;;5009357;28;94560;-71
2022/01/04 05:48:20;;;;;;;22.23;16.05;;;;;;;;;;5003030;28;92630;-71
2022/01/04 05:50:47;;;;;;;18.10;15.27;;;;;;;;;;5001356;28;92945;-69
2022/01/04 05:53:13;;;;;;;20.98;16.85;;;;;;;;;;5006886;28;93941;-71
2022/01/04 05:55:40;;;;;;;20.13;16.63;;;;;;;;;;4999351;28;94122;-70
2022/01/04 05:58:06;;;;;;;25.85;17.73;;;;;;;;;;5002983;28;92966;-71
2022/01/04 06:00:33;;;;;;;30.63;18.70;;;;;;;;;;5009874;28;94193;-71
2022/01/04 06:03:01;;;;;;;20.52;18.27;;;;;;;;;;5002343;28;92585;-70
2022/01/04 06:05:27;;;;;;;18.13;16.17;;;;;;;;;;5010186;28;94837;-70
2022/01/04 06:07:54;;;;;;;25.23;17.30;;;;;;;;;;5005143;28;92638;-70
2022/01/04 06:10:21;;;;;;;27.40;20.98;;;;;;;;;;4999522;28;93643;-70
2022/01/04 06:15:16;;;;;;;25.92;18.17;;;;;;;;;;5003283;28;92466;-70
2022/01/04 06:17:44;;;;;;;23.63;18.85;;;;;;;;;;5000720;28;94105;-70
2022/01/04 06:20:14;;;;;;;26.20;19.00;;;;;;;;;;5005369;28;93403;-70
2022/01/04 06:22:41;;;;;;;25.35;18.23;;;;;;;;;;5004080;28;91798;-70
2022/01/04 06:25:13;;;;;;;27.38;18.27;;;;;;;;;;5013655;28;93903;-69
2022/01/04 06:27:43;;;;;;;26.17;18.40;;;;;;;;;;4998558;28;92889;-70
2022/01/04 06:30:10;;;;;;;27.05;19.88;;;;;;;;;;5002410;28;94903;-70
2022/01/04 06:32:36;;;;;;;29.02;21.17;;;;;;;;;;5009160;28;93157;-70
2022/01/04 06:35:03;;;;;;;30.13;22.20;;;;;;;;;;5005462;28;92636;-70
2022/01/04 06:37:32;;;;;;;24.98;20.58;;;;;;;;;;5008513;28;94122;-70
2022/01/04 06:39:58;;;;;;;25.65;20.48;;;;;;;;;;5005853;28;94182;-70
2022/01/04 06:42:25;;;;;;;32.50;21.15;;;;;;;;;;4999202;28;92552;-70
2022/01/04 06:44:51;;;;;;;29.77;19.98;;;;;;;;;;5007892;28;93127;-70
2022/01/04 06:47:17;;;;;;;25.95;21.10;;;;;;;;;;5006511;28;93222;-70
2022/01/04 06:49:44;;;;;;;27.90;20.33;;;;;;;;;;5007536;28;93861;-70
2022/01/04 06:52:10;;;;;;;32.25;20.88;;;;;;;;;;4996119;28;94164;-70
2022/01/04 06:54:36;;;;;;;29.77;21.40;;;;;;;;;;5003891;28;94848;-70
2022/01/04 06:57:03;;;;;;;32.90;20.92;;;;;;;;;;5000504;28;95435;-70
2022/01/04 06:59:30;;;;;;;26.85;21.23;;;;;;;;;;4983166;28;93361;-70
2022/01/04 07:01:56;;;;;;;28.35;21.42;;;;;;;;;;4974121;28;92518;-71
2022/01/04 07:04:23;;;;;;;27.48;21.15;;;;;;;;;;4976403;28;94045;-71
2022/01/04 07:06:50;;;;;;;25.55;20.13;;;;;;;;;;4974325;28;94201;-70
2022/01/04 07:09:16;;;;;;;24.00;20.40;;;;;;;;;;4982472;28;92519;-70
2022/01/04 07:11:42;;;;;;;26.77;20.90;;;;;;;;;;4978731;28;93392;-70
2022/01/04 07:14:09;;;;;;;27.58;20.20;;;;;;;;;;4975255;28;93133;-70
2022/01/04 07:16:35;;;;;;;25.45;20.35;;;;;;;;;;4986900;28;94093;-70
2022/01/04 07:19:01;;;;;;;26.23;21.00;;;;;;;;;;4981977;28;95474;-69
2022/01/04 07:21:28;;;;;;;24.20;21.10;;;;;;;;;;4982882;28;92538;-69
2022/01/04 07:23:59;;;;;;;24.08;18.27;;;;;;;;;;4977098;28;92979;-69
2022/01/04 07:26:25;;;;;;;24.02;21.52;;;;;;;;;;4976945;28;93263;-69
2022/01/04 07:28:52;;;;;;;26.90;20.67;;;;;;;;;;4975980;28;93588;-69
2022/01/04 07:31:18;;;;;;;24.23;21.27;;;;;;;;;;5003818;28;93903;-69
2022/01/04 07:33:45;;;;;;;31.10;22.33;;;;;;;;;;4980162;28;93989;-71
2022/01/04 07:36:12;;;;;;;28.90;21.52;;;;;;;;;;4988273;28;92805;-69
2022/01/04 07:38:39;;;;;;;33.22;22.42;;;;;;;;;;4995467;28;94489;-69
2022/01/04 07:41:05;;;;;;;27.70;21.95;;;;;;;;;;4984851;28;92451;-69
2022/01/04 07:43:32;;;;;;;28.85;22.08;;;;;;;;;;4973206;28;94930;-69
2022/01/04 07:45:59;;;;;;;29.00;22.40;;;;;;;;;;4981108;28;93661;-69
2022/01/04 07:48:25;;;;;;;31.73;22.55;;;;;;;;;;4986911;28;93121;-69
2022/01/04 07:50:55;;;;;;;30.80;22.20;;;;;;;;;;4985743;28;93387;-70
2022/01/04 07:53:27;;;;;;;33.50;23.10;;;;;;;;;;4981726;28;94167;-70
2022/01/04 07:55:54;;;;;;;32.63;21.58;;;;;;;;;;4983165;28;94608;-70
2022/01/04 07:58:22;;;;;;;26.25;21.58;;;;;;;;;;4981058;28;94443;-69
2022/01/04 08:00:48;;;;;;;28.50;22.13;;;;;;;;;;4985862;28;92051;-70
2022/01/04 08:03:15;;;;;;;29.55;21.77;;;;;;;;;;4978515;28;92692;-70
2022/01/04 08:05:41;;;;;;;34.63;23.25;;;;;;;;;;4977491;28;93373;-70
2022/01/04 08:08:08;;;;;;;33.10;22.13;;;;;;;;;;4987580;28;95831;-70
2022/01/04 08:10:35;;;;;;;25.77;22.95;;;;;;;;;;4987393;28;96566;-70
2022/01/04 08:13:02;;;;;;;24.08;21.05;;;;;;;;;;4977393;28;93582;-71
2022/01/04 08:15:29;;;;;;;29.77;21.52;;;;;;;;;;4991024;28;93705;-70
2022/01/04 08:17:56;;;;;;;29.42;22.75;;;;;;;;;;4978455;28;94133;-70
2022/01/04 08:20:22;;;;;;;28.35;23.25;;;;;;;;;;4988862;28;92523;-69
2022/01/04 08:22:49;;;;;;;30.00;23.30;;;;;;;;;;4982630;28;93185;-69
2022/01/04 08:25:15;;;;;;;33.42;22.50;;;;;;;;;;4974044;28;93266;-69
2022/01/04 08:27:42;;;;;;;29.17;21.48;;;;;;;;;;4983950;28;93966;-70
2022/01/04 08:30:10;;;;;;;33.80;21.67;;;;;;;;;;4982513;28;95089;-70
2022/01/04 08:32:38;;;;;;;27.70;21.17;;;;;;;;;;4977813;28;95470;-70
2022/01/04 08:35:05;;;;;;;34.78;22.25;;;;;;;;;;4980836;28;93704;-69
2022/01/04 08:37:34;;;;;;;15.02;12.43;;;;;;;;;;4978305;28;95516;-70
2022/01/04 08:40:00;;;;;;;16.48;13.05;;;;;;;;;;4972298;28;92597;-70
2022/01/04 08:42:26;;;;;;;20.90;13.85;;;;;;;;;;4977725;28;94097;-69
2022/01/04 08:44:55;;;;;;;19.85;15.65;;;;;;;;;;4976795;28;93367;-71
2022/01/04 08:47:22;;;;;;;21.30;18.50;;;;;;;;;;4975307;28;93771;-70
2022/01/04 08:49:49;;;;;;;26.33;19.88;;;;;;;;;;4987716;28;93053;-70
2022/01/04 08:52:15;;;;;;;33.85;21.63;;;;;;;;;;4978010;28;93630;-70
2022/01/04 08:54:41;;;;;;;45.03;29.25;;;;;;;;;;4980327;28;92468;-70
2022/01/04 08:57:08;;;;;;;34.35;23.70;;;;;;;;;;4979883;28;96521;-70
2022/01/04 08:59:34;;;;;;;40.78;25.77;;;;;;;;;;4983626;28;93130;-70
2022/01/04 09:02:01;;;;;;;39.95;26.65;;;;;;;;;;4985207;28;94054;-70
2022/01/04 09:04:27;;;;;;;43.67;30.63;;;;;;;;;;4975308;28;93667;-70
2022/01/04 09:06:54;;;;;;;50.97;33.42;;;;;;;;;;4976373;28;93215;-69
2022/01/04 09:09:20;;;;;;;38.05;24.98;;;;;;;;;;4985130;28;93916;-70
2022/01/04 09:11:47;;;;;;;36.90;24.20;;;;;;;;;;4971748;28;94132;-70
2022/01/04 09:14:24;;;;;;;44.80;25.48;;;;;;;;;;4978126;28;91736;-69
2022/01/04 09:19:36;;;;;;;33.75;23.98;;;;;;;;;;4975902;28;94931;-69
2022/01/04 09:22:03;;;;;;;36.67;24.58;;;;;;;;;;4976541;28;95469;-70
2022/01/04 09:24:30;;;;;;;44.65;24.73;;;;;;;;;;4975094;28;94027;-70
2022/01/04 09:26:57;;;;;;;35.58;23.25;;;;;;;;;;4973368;28;92638;-70
2022/01/04 09:29:24;;;;;;;38.33;24.08;;;;;;;;;;4971640;28;94302;-70
2022/01/04 09:31:53;;;;;;;36.83;21.98;;;;;;;;;;4990859;28;94043;-70
2022/01/04 09:34:19;;;;;;;25.38;20.20;;;;;;;;;;4986067;28;92573;-69
2022/01/04 09:36:46;;;;;;;30.75;21.98;;;;;;;;;;4989613;28;95338;-69
2022/01/04 09:39:18;;;;;;;30.85;20.55;;;;;;;;;;4978937;28;93550;-70
2022/01/04 09:41:44;;;;;;;30.50;21.25;;;;;;;;;;4977295;28;92539;-70
2022/01/04 09:44:11;;;;;;;28.67;20.90;;;;;;;;;;4980529;28;93590;-70
2022/01/04 09:46:38;;;;;;;31.60;20.95;;;;;;;;;;4987285;28;94871;-69
2022/01/04 09:49:05;;;;;;;27.08;20.40;;;;;;;;;;4979493;28;96428;-70
2022/01/04 09:51:31;;;;;;;33.40;20.08;;;;;;;;;;4971562;28;96202;-70
2022/01/04 09:53:58;;;;;;;32.08;23.60;;;;;;;;;;4975393;28;93295;-69
2022/01/04 09:56:24;;;;;;;32.53;21.40;;;;;;;;;;4989508;28;94519;-69
2022/01/04 09:58:51;;;;;;;36.70;21.65;;;;;;;;;;4983660;28;93239;-70
2022/01/04 10:01:19;;;;;;;30.42;18.52;;;;;;;;;;4979942;28;92508;-70
2022/01/04 10:04:05;;;;;;;30.15;18.98;;;;;;;;;;4989108;28;93895;-69
2022/01/04 10:06:33;;;;;;;23.63;17.58;;;;;;;;;;4978889;28;92416;-68
2022/01/04 10:09:04;;;;;;;24.17;17.17;;;;;;;;;;4981297;28;92493;-69
2022/01/04 10:11:32;;;;;;;26.20;17.42;;;;;;;;;;4977397;28;95814;-70
2022/01/04 10:13:59;;;;;;;22.13;16.40;;;;;;;;;;4976971;28;92461;-69
2022/01/04 10:16:26;;;;;;;22.35;16.27;;;;;;;;;;4976500;28;94708;-70
2022/01/04 10:18:53;;;;;;;24.73;15.88;;;;;;;;;;4984552;28;93442;-70
2022/01/04 10:21:20;;;;;;;22.80;16.00;;;;;;;;;;4980971;28;92708;-70
2022/01/04 10:23:56;;;;;;;19.73;13.02;;;;;;;;;;4979846;28;94413;-72
2022/01/04 10:26:35;;;;;;;20.95;13.13;;;;;;;;;;4981317;28;93300;-70
2022/01/04 10:29:17;;;;;;;18.85;12.88;;;;;;;;;;4972485;28;95386;-70
2022/01/04 10:31:43;;;;;;;21.52;12.43;;;;;;;;;;4974410;28;92851;-70
2022/01/04 10:34:10;;;;;;;24.40;12.57;;;;;;;;;;4974012;28;92414;-70
2022/01/04 10:36:37;;;;;;;25.38;11.98;;;;;;;;;;4985775;28;94875;-70
2022/01/04 10:39:08;;;;;;;28.98;15.40;;;;;;;;;;4981335;28;93797;-70
2022/01/04 10:41:34;;;;;;;23.48;10.65;;;;;;;;;;4992775;28;92835;-71
2022/01/04 10:44:06;;;;;;;17.58;10.32;;;;;;;;;;4987567;28;93118;-70
2022/01/04 10:46:35;;;;;;;23.40;9.48;;;;;;;;;;4990927;28;94680;-70
2022/01/04 10:49:13;;;;;;;18.83;9.77;;;;;;;;;;4993899;28;93574;-70
2022/01/04 10:51:39;;;;;;;15.82;9.00;;;;;;;;;;4988876;28;94281;-70
2022/01/04 10:54:06;;;;;;;22.05;9.23;;;;;;;;;;4987500;28;94413;-70
2022/01/04 10:56:34;;;;;;;19.17;9.85;;;;;;;;;;4985776;28;94468;-70
2022/01/04 10:59:02;;;;;;;14.35;8.48;;;;;;;;;;4980632;28;94339;-70
2022/01/04 11:01:31;;;;;;;18.95;8.50;;;;;;;;;;4980485;28;95873;-71
2022/01/04 11:03:59;;;;;;;16.70;8.45;;;;;;;;;;4985118;28;96535;-70
2022/01/04 11:06:28;;;;;;;19.13;8.15;;;;;;;;;;4979570;28;94592;-71
2022/01/04 11:08:55;;;;;;;25.60;8.55;;;;;;;;;;4983901;28;93097;-71
2022/01/04 11:11:21;;;;;;;19.85;7.35;;;;;;;;;;4986936;28;94768;-71
2022/01/04 11:13:51;;;;;;;20.80;7.60;;;;;;;;;;4984272;28;92536;-70
2022/01/04 11:16:19;;;;;;;23.73;8.02;;;;;;;;;;4983563;28;93308;-70
2022/01/04 11:18:49;;;;;;;22.08;8.23;;;;;;;;;;4987334;28;93411;-70
2022/01/04 11:21:15;;;;;;;29.48;8.52;;;;;;;;;;4990424;28;93789;-69
2022/01/04 11:23:42;;;;;;;20.55;8.00;;;;;;;;;;4981948;28;94757;-70
2022/01/04 11:26:09;;;;;;;11.80;4.45;;;;;;;;;;4980642;28;95816;-70
2022/01/04 11:28:40;;;;;;;12.45;3.00;;;;;;;;;;4991819;28;92515;-71
2022/01/04 11:31:25;;;;;;;9.63;2.85;;;;;;;;;;4986990;28;94618;-69
2022/01/04 11:34:06;;;;;;;7.07;1.83;;;;;;;;;;4985163;28;92778;-70
2022/01/04 11:36:34;;;;;;;9.55;1.95;;;;;;;;;;4985404;28;94143;-70
2022/01/04 11:39:00;;;;;;;7.13;1.83;;;;;;;;;;4982907;28;93772;-70
2022/01/04 11:41:32;;;;;;;9.10;1.85;;;;;;;;;;4983164;28;93649;-70
2022/01/04 11:44:15;;;;;;;3.40;1.30;;;;;;;;;;4991382;28;94108;-70
2022/01/04 11:46:42;;;;;;;3.58;1.55;;;;;;;;;;4977777;28;94290;-70
2022/01/04 11:49:10;;;;;;;4.30;1.30;;;;;;;;;;4978966;28;93375;-70
2022/01/04 11:51:38;;;;;;;5.25;1.52;;;;;;;;;;4977338;28;94871;-70
2022/01/04 11:54:15;;;;;;;5.35;1.23;;;;;;;;;;4976427;28;93518;-71
2022/01/04 11:56:49;;;;;;;5.05;1.40;;;;;;;;;;4986524;28;93314;-70
2022/01/04 11:59:26;;;;;;;4.70;1.45;;;;;;;;;;4977302;28;94253;-70
2022/01/04 12:01:53;;;;;;;3.15;1.35;;;;;;;;;;4978455;28;92479;-70
2022/01/04 12:04:38;;;;;;;3.15;1.73;;;;;;;;;;4977010;28;94052;-71
2022/01/04 12:07:05;;;;;;;4.60;1.63;;;;;;;;;;4982671;28;94935;-69
2022/01/04 12:09:32;;;;;;;8.40;1.73;;;;;;;;;;4982674;28;91790;-69
2022/01/04 12:11:58;;;;;;;2.85;1.30;;;;;;;;;;4986463;28;93049;-70
2022/01/04 12:14:27;;;;;;;1.90;1.30;;;;;;;;;;4982781;28;94381;-70
2022/01/04 12:17:04;;;;;;;5.38;1.67;;;;;;;;;;4981950;28;94973;-70
2022/01/04 12:19:50;;;;;;;6.22;1.27;;;;;;;;;;4982610;28;93803;-70
2022/01/04 12:22:32;;;;;;;6.53;2.45;;;;;;;;;;4991838;28;92587;-70
2022/01/04 12:25:06;;;;;;;3.35;1.25;;;;;;;;;;4988772;28;93168;-71
2022/01/04 12:27:33;;;;;;;1.08;1.00;;;;;;;;;;4988043;28;94337;-70
2022/01/04 12:30:19;;;;;;;3.08;1.38;;;;;;;;;;4982231;28;92505;-71
2022/01/04 12:32:46;;;;;;;2.05;1.23;;;;;;;;;;4984680;28;93223;-69
2022/01/04 12:35:12;;;;;;;1.30;1.20;;;;;;;;;;4988000;28;92737;-70
2022/01/04 12:37:38;;;;;;;3.15;1.30;;;;;;;;;;4982015;28;92587;-70
2022/01/04 12:40:05;;;;;;;2.95;1.13;;;;;;;;;;4983517;28;94216;-70
2022/01/04 12:42:32;;;;;;;3.53;0.93;;;;;;;;;;4982761;28;94842;-70
2022/01/04 12:44:58;;;;;;;1.23;1.20;;;;;;;;;;4980781;28;96376;-70
2022/01/04 12:47:25;;;;;;;1.77;1.13;;;;;;;;;;4989398;28;95867;-70
2022/01/04 12:49:52;;;;;;;2.70;1.20;;;;;;;;;;4971774;28;93049;-70
2022/01/04 12:52:21;;;;;;;3.53;1.10;;;;;;;;;;4973233;28;92473;-73
2022/01/04 12:54:47;;;;;;;3.33;1.75;;;;;;;;;;4973416;28;93964;-70
2022/01/04 12:57:15;;;;;;;4.10;1.50;;;;;;;;;;4986478;28;93019;-69
2022/01/04 12:59:45;;;;;;;2.80;1.55;;;;;;;;;;4981757;28;92977;-70
2022/01/04 13:02:17;;;;;;;2.03;1.30;;;;;;;;;;4974056;28;92506;-70
2022/01/04 13:04:46;;;;;;;4.18;1.08;;;;;;;;;;4978606;28;93860;-70
2022/01/04 13:07:14;;;;;;;4.10;0.98;;;;;;;;;;4984276;28;95927;-71
2022/01/04 13:09:40;;;;;;;2.03;0.95;;;;;;;;;;4979960;28;92493;-70
2022/01/04 13:12:07;;;;;;;4.75;1.17;;;;;;;;;;4973283;28;93920;-69
2022/01/04 13:14:34;;;;;;;5.25;1.40;;;;;;;;;;4973166;28;94592;-72
2022/01/04 13:17:08;;;;;;;4.25;1.33;;;;;;;;;;4973228;28;92623;-69
2022/01/04 13:19:36;;;;;;;5.72;1.55;;;;;;;;;;4982370;28;94427;-69
2022/01/04 13:22:06;;;;;;;8.93;1.35;;;;;;;;;;4985127;28;93511;-70
2022/01/04 13:24:32;;;;;;;8.57;1.55;;;;;;;;;;4973837;28;94213;-70
2022/01/04 13:27:16;;;;;;;6.10;1.45;;;;;;;;;;4976986;28;94882;-69
2022/01/04 13:29:47;;;;;;;6.65;1.63;;;;;;;;;;4977226;28;92599;-69
2022/01/04 13:32:13;;;;;;;11.82;1.83;;;;;;;;;;4971067;28;94812;-70
2022/01/04 13:34:40;;;;;;;6.53;1.63;;;;;;;;;;4973459;28;93133;-70
2022/01/04 13:37:07;;;;;;;7.72;1.42;;;;;;;;;;4973749;28;94300;-70
2022/01/04 13:39:34;;;;;;;3.67;1.38;;;;;;;;;;4980202;28;93267;-70
2022/01/04 13:42:02;;;;;;;6.93;2.67;;;;;;;;;;4973346;28;94075;-70
2022/01/04 13:44:28;;;;;;;7.57;1.45;;;;;;;;;;4983769;28;92532;-70
2022/01/04 13:46:55;;;;;;;7.68;2.13;;;;;;;;;;4979596;28;94601;-70
2022/01/04 13:49:26;;;;;;;8.43;1.33;;;;;;;;;;4973539;28;91796;-70
2022/01/04 13:51:52;;;;;;;4.75;1.65;;;;;;;;;;4974703;28;93302;-70
2022/01/04 13:54:19;;;;;;;10.15;1.95;;;;;;;;;;4972170;28;94673;-70
2022/01/04 13:56:45;;;;;;;5.25;1.60;;;;;;;;;;4972124;28;94880;-70
2022/01/04 13:59:21;;;;;;;4.93;1.60;;;;;;;;;;4973474;28;96448;-70
2022/01/04 14:01:52;;;;;;;3.13;1.20;;;;;;;;;;4973186;28;93277;-70
2022/01/04 14:04:21;;;;;;;8.15;1.42;;;;;;;;;;4973666;28;92930;-70
2022/01/04 14:07:11;;;;;;;2.00;1.10;;;;;;;;;;4981755;28;93219;-70
2022/01/04 14:09:44;;;;;;;7.80;1.45;;;;;;;;;;4980368;28;92572;-70
2022/01/04 14:12:11;;;;;;;6.50;1.88;;;;;;;;;;4974396;28;93595;-69
2022/01/04 14:14:38;;;;;;;8.82;2.15;;;;;;;;;;4987105;28;93321;-70
2022/01/04 14:17:08;;;;;;;6.95;1.25;;;;;;;;;;4975952;28;92804;-70
2022/01/04 14:19:49;;;;;;;1.60;1.35;;;;;;;;;;4981078;28;93138;-69
2022/01/04 14:22:20;;;;;;;3.75;1.45;;;;;;;;;;4976380;28;95524;-70
2022/01/04 14:24:53;;;;;;;3.92;1.38;;;;;;;;;;4984733;28;92459;-69
2022/01/04 14:27:24;;;;;;;8.13;1.70;;;;;;;;;;4990334;28;93878;-69
2022/01/04 14:29:54;;;;;;;6.82;1.58;;;;;;;;;;4986172;28;94480;-69
2022/01/04 14:32:21;;;;;;;4.93;1.50;;;;;;;;;;4975950;28;94158;-69
2022/01/04 14:34:47;;;;;;;3.20;1.15;;;;;;;;;;4975493;28;94244;-70